Time;durP1;ratioP1;P1;durP2;ratioP2;P2;SDS_P1;SDS_P2;PMS_P1;PMS_P2;Temp;Humidity;BMP_temperature;BMP_pressure;BME280_temperature;BME280_humidity;BME280_pressure;Samples;Min_cycle;Max_cycle;Signal;HPM_P1;HPM_P2
2022/09/10 00:01:14;;;;;;;9.98;9.57;;;;;;;19.35;100.00;100719.50;5036444;28;20105;-63
2022/09/10 00:03:39;;;;;;;9.93;9.52;;;;;;;19.37;100.00;100699.38;5050892;28;20384;-63
2022/09/10 00:06:06;;;;;;;10.20;9.70;;;;;;;19.39;100.00;100713.44;5052647;28;20028;-62
2022/09/10 00:08:33;;;;;;;9.95;9.52;;;;;;;19.28;100.00;100703.44;5055195;28;20083;-62
2022/09/10 00:11:03;;;;;;;9.55;9.15;;;;;;;19.28;100.00;100706.94;5054910;28;20105;-62
2022/09/10 00:13:29;;;;;;;10.00;9.60;;;;;;;19.23;100.00;100704.09;5052646;28;20377;-62
2022/09/10 00:15:54;;;;;;;10.75;10.25;;;;;;;19.28;100.00;100696.19;5053270;28;20032;-63
2022/09/10 00:18:21;;;;;;;9.80;9.40;;;;;;;19.31;100.00;100700.28;5054869;28;20029;-63
2022/09/10 00:20:52;;;;;;;9.73;9.32;;;;;;;19.15;100.00;100698.22;5054669;28;20021;-63
2022/09/10 00:23:21;;;;;;;10.15;9.68;;;;;;;19.25;100.00;100706.59;5053742;28;20025;-63
2022/09/10 00:25:48;;;;;;;10.30;9.80;;;;;;;19.08;100.00;100695.63;5047680;28;20036;-63
2022/09/10 00:28:14;;;;;;;9.57;9.18;;;;;;;19.11;100.00;100697.06;5054412;28;20033;-63
2022/09/10 00:30:41;;;;;;;9.90;9.50;;;;;;;19.16;100.00;100686.41;5054412;28;20028;-63
2022/09/10 00:33:07;;;;;;;9.85;9.45;;;;;;;19.09;100.00;100696.44;5049850;28;20033;-62
2022/09/10 00:35:33;;;;;;;10.50;10.00;;;;;;;19.20;100.00;100693.00;5044852;28;20028;-63
2022/09/10 00:37:59;;;;;;;10.00;9.60;;;;;;;19.31;100.00;100681.44;5054388;28;20018;-63
2022/09/10 00:40:25;;;;;;;10.30;9.80;;;;;;;19.23;100.00;100682.59;5050526;28;20017;-62
2022/09/10 00:42:50;;;;;;;9.77;9.38;;;;;;;19.30;100.00;100679.81;5054110;28;20072;-62
2022/09/10 00:45:22;;;;;;;10.27;9.77;;;;;;;19.31;100.00;100684.13;5053984;28;20070;-63
2022/09/10 00:47:49;;;;;;;9.88;9.48;;;;;;;19.37;100.00;100682.41;5054338;28;20447;-63
2022/09/10 00:50:15;;;;;;;10.32;9.82;;;;;;;19.42;100.00;100680.69;5042092;28;20025;-62
2022/09/10 00:52:42;;;;;;;9.90;9.50;;;;;;;19.42;100.00;100683.38;5050836;28;20063;-62
2022/09/10 00:55:10;;;;;;;9.90;9.50;;;;;;;19.36;100.00;100678.09;5054220;28;20480;-63
2022/09/10 00:57:36;;;;;;;10.15;9.65;;;;;;;19.41;100.00;100680.91;5053258;28;20029;-63
2022/09/10 01:00:09;;;;;;;9.85;9.45;;;;;;;19.53;100.00;100679.88;5051419;28;20098;-63
2022/09/10 01:02:34;;;;;;;9.77;9.38;;;;;;;19.60;100.00;100675.25;5046564;28;20047;-64
2022/09/10 01:05:02;;;;;;;11.00;10.50;;;;;;;19.54;100.00;100673.47;5040109;28;20112;-62
2022/09/10 01:07:29;;;;;;;10.52;10.02;;;;;;;19.63;100.00;100674.00;5053575;28;20029;-63
2022/09/10 01:10:00;;;;;;;10.45;9.95;;;;;;;19.53;100.00;100682.56;5052470;28;20025;-63
2022/09/10 01:12:41;;;;;;;10.30;9.80;;;;;;;19.40;100.00;100674.72;5049476;28;20026;-63
2022/09/10 01:15:06;;;;;;;9.90;9.50;;;;;;;19.44;100.00;100672.38;5048364;28;20029;-63
2022/09/10 01:18:02;;;;;;;9.88;9.48;;;;;;;19.52;100.00;100664.78;5053395;28;20086;-63
2022/09/10 01:21:01;;;;;;;9.98;9.57;;;;;;;19.28;100.00;100671.16;5047368;28;20507;-63
2022/09/10 01:24:00;;;;;;;10.40;9.90;;;;;;;19.46;100.00;100665.75;5042748;28;20079;-62
2022/09/10 01:26:38;;;;;;;10.27;9.77;;;;;;;19.34;100.00;100664.88;5044351;28;20029;-63
2022/09/10 01:29:09;;;;;;;9.80;9.40;;;;;;;19.30;100.00;100669.06;5053718;28;20025;-63
2022/09/10 01:31:52;;;;;;;10.23;9.73;;;;;;;19.37;100.00;100661.72;5052507;28;20033;-63
2022/09/10 01:34:35;;;;;;;10.20;9.70;;;;;;;19.32;100.00;100661.59;5053474;28;20108;-63
2022/09/10 01:37:08;;;;;;;10.43;9.93;;;;;;;19.33;100.00;100657.84;5046557;28;20511;-62
2022/09/10 01:39:34;;;;;;;10.07;9.63;;;;;;;19.35;100.00;100654.94;5044210;28;20056;-63
2022/09/10 01:42:00;;;;;;;9.95;9.55;;;;;;;19.32;100.00;100648.16;5053172;28;20029;-63
2022/09/10 01:44:46;;;;;;;10.38;9.88;;;;;;;19.26;100.00;100655.25;5050861;28;20091;-62
2022/09/10 01:47:30;;;;;;;10.20;9.70;;;;;;;19.39;100.00;100651.56;5044489;28;20389;-64
2022/09/10 01:50:08;;;;;;;10.07;9.65;;;;;;;19.25;100.00;100658.19;5051897;28;20056;-63
2022/09/10 01:52:57;;;;;;;9.90;9.50;;;;;;;19.17;100.00;100650.41;5048939;28;20120;-62
2022/09/10 01:55:32;;;;;;;10.25;9.75;;;;;;;19.21;100.00;100662.38;5046263;28;20099;-62
2022/09/10 01:58:09;;;;;;;10.18;9.68;;;;;;;18.92;100.00;100664.81;5045738;28;20103;-63
2022/09/10 02:00:40;;;;;;;10.25;9.75;;;;;;;18.78;100.00;100668.69;5033520;28;20034;-63
2022/09/10 02:03:05;;;;;;;9.90;9.50;;;;;;;18.83;100.00;100660.78;5047017;28;20056;-62
2022/09/10 02:05:35;;;;;;;10.43;9.93;;;;;;;18.84;100.00;100658.91;5051805;28;20067;-62
2022/09/10 02:08:32;;;;;;;9.90;9.50;;;;;;;18.69;100.00;100660.13;5052572;28;20112;-63
2022/09/10 02:11:10;;;;;;;10.02;9.60;;;;;;;18.73;100.00;100660.50;5033317;28;20083;-63
2022/09/10 02:13:37;;;;;;;9.95;9.55;;;;;;;18.71;100.00;100659.91;5046863;28;20021;-63
2022/09/10 02:16:08;;;;;;;10.18;9.68;;;;;;;18.75;100.00;100669.16;5051894;28;20354;-62
2022/09/10 02:18:34;;;;;;;9.88;9.48;;;;;;;18.72;100.00;100661.53;5041312;28;20048;-64
2022/09/10 02:21:02;;;;;;;10.25;9.75;;;;;;;18.83;100.00;100652.72;5052480;28;20376;-64
2022/09/10 02:23:55;;;;;;;9.70;9.30;;;;;;;18.82;100.00;100647.59;5051220;28;20444;-62
2022/09/10 02:26:21;;;;;;;10.30;9.80;;;;;;;18.66;100.00;100644.47;5052445;28;20484;-63
2022/09/10 02:28:49;;;;;;;9.85;9.45;;;;;;;18.76;100.00;100651.97;5038410;28;20103;-63
2022/09/10 02:31:17;;;;;;;10.45;9.95;;;;;;;18.85;100.00;100649.81;5052365;28;20147;-63
2022/09/10 02:33:43;;;;;;;9.57;9.18;;;;;;;18.77;100.00;100648.25;5052302;28;20037;-63
2022/09/10 02:36:08;;;;;;;10.18;9.70;;;;;;;18.66;100.00;100649.84;5052401;28;20032;-63
2022/09/10 02:38:34;;;;;;;10.15;9.68;;;;;;;18.81;100.00;100649.44;5052140;28;20028;-63
2022/09/10 02:40:59;;;;;;;10.63;10.13;;;;;;;18.70;100.00;100639.44;5050812;28;20025;-62
2022/09/10 02:43:26;;;;;;;9.98;9.57;;;;;;;18.84;100.00;100638.25;5046458;28;20076;-63
2022/09/10 02:45:58;;;;;;;10.20;9.70;;;;;;;18.77;100.00;100642.88;5043005;28;20029;-63
2022/09/10 02:48:27;;;;;;;10.18;9.68;;;;;;;18.81;100.00;100627.13;5051711;28;20024;-62
2022/09/10 02:50:53;;;;;;;9.93;9.52;;;;;;;18.91;100.00;100630.91;5052156;28;20107;-64
2022/09/10 02:53:19;;;;;;;9.82;9.43;;;;;;;18.71;100.00;100630.34;5052082;28;20394;-63
2022/09/10 02:55:45;;;;;;;10.02;9.63;;;;;;;18.78;100.00;100634.56;5047604;28;20439;-63
2022/09/10 02:58:12;;;;;;;10.40;9.90;;;;;;;18.79;100.00;100635.41;5051710;28;20025;-63
2022/09/10 03:00:38;;;;;;;10.00;9.60;;;;;;;18.70;100.00;100624.13;5046444;28;20494;-63
2022/09/10 03:03:04;;;;;;;9.80;9.40;;;;;;;18.76;100.00;100622.41;5042819;28;20400;-64
2022/09/10 03:05:29;;;;;;;10.23;9.73;;;;;;;18.71;100.00;100622.28;5051598;28;20086;-63
2022/09/10 03:07:56;;;;;;;10.30;9.80;;;;;;;18.75;100.00;100618.91;5044772;28;20125;-63
2022/09/10 03:10:23;;;;;;;10.27;9.77;;;;;;;18.78;100.00;100606.88;5047921;28;20047;-63
2022/09/10 03:12:49;;;;;;;10.40;9.90;;;;;;;18.82;100.00;100602.72;5044752;28;20052;-63
2022/09/10 03:15:14;;;;;;;9.90;9.50;;;;;;;18.71;100.00;100612.34;5051453;28;20021;-63
2022/09/10 03:17:40;;;;;;;10.32;9.82;;;;;;;18.73;100.00;100609.44;5048105;28;20029;-63
2022/09/10 03:20:06;;;;;;;10.15;9.68;;;;;;;18.70;100.00;100613.38;5041050;28;20112;-63
2022/09/10 03:22:32;;;;;;;10.63;10.13;;;;;;;18.63;100.00;100606.44;5051462;28;20033;-63
2022/09/10 03:24:58;;;;;;;9.80;9.40;;;;;;;18.63;100.00;100609.13;5051374;28;20535;-62
2022/09/10 03:27:25;;;;;;;10.18;9.68;;;;;;;18.61;100.00;100603.16;5050798;28;20041;-63
2022/09/10 03:29:50;;;;;;;10.40;9.90;;;;;;;18.50;100.00;100612.78;5050156;28;20086;-62
2022/09/10 03:32:15;;;;;;;10.32;9.82;;;;;;;18.48;100.00;100602.25;5051109;28;20028;-63
2022/09/10 03:34:41;;;;;;;10.30;9.80;;;;;;;18.52;100.00;100604.50;5045799;28;20163;-63
2022/09/10 03:37:07;;;;;;;9.98;9.57;;;;;;;18.62;100.00;100602.91;5042670;28;20017;-63
2022/09/10 03:39:32;;;;;;;10.40;9.90;;;;;;;18.55;100.00;100591.44;5054676;28;20476;-62
2022/09/10 03:41:58;;;;;;;10.50;10.00;;;;;;;18.56;100.00;100587.69;5055366;28;20024;-63
2022/09/10 03:44:24;;;;;;;10.38;9.88;;;;;;;18.56;100.00;100595.75;5055228;28;20102;-63
2022/09/10 03:46:50;;;;;;;10.75;10.25;;;;;;;18.44;100.00;100600.25;5043191;28;20091;-63
2022/09/10 03:49:16;;;;;;;10.27;9.77;;;;;;;18.53;100.00;100587.34;5055004;28;20119;-63
2022/09/10 03:51:41;;;;;;;9.68;9.27;;;;;;;18.54;100.00;100579.06;5044885;28;20112;-63
2022/09/10 03:54:07;;;;;;;10.32;9.82;;;;;;;18.55;100.00;100587.94;5052101;28;20469;-62
2022/09/10 03:56:33;;;;;;;10.30;9.80;;;;;;;18.58;100.00;100577.56;5054960;28;20043;-63
2022/09/10 03:58:59;;;;;;;10.50;10.00;;;;;;;18.66;100.00;100588.03;5054988;28;20025;-62
2022/09/10 04:01:24;;;;;;;10.50;10.00;;;;;;;18.61;100.00;100595.09;5039637;28;20381;-63
2022/09/10 04:03:54;;;;;;;10.57;10.07;;;;;;;18.50;100.00;100594.78;5051279;28;20111;-62
2022/09/10 04:06:19;;;;;;;10.13;9.65;;;;;;;18.58;100.00;100599.06;5054840;28;20024;-63
2022/09/10 04:08:48;;;;;;;10.30;9.80;;;;;;;18.51;100.00;100587.56;5054848;28;20038;-62
2022/09/10 04:11:13;;;;;;;10.27;9.77;;;;;;;18.55;100.00;100594.13;5054710;28;20108;-62
2022/09/10 04:13:39;;;;;;;10.45;9.95;;;;;;;18.52;100.00;100596.44;5053865;28;20112;-62
2022/09/10 04:16:04;;;;;;;10.32;9.82;;;;;;;18.58;100.00;100598.22;5054605;28;20071;-62
2022/09/10 04:18:33;;;;;;;10.63;10.13;;;;;;;18.74;100.00;100600.34;5053186;28;20021;-62
2022/09/10 04:20:58;;;;;;;10.50;10.00;;;;;;;18.61;100.00;100605.84;5053469;28;20511;-63
2022/09/10 04:23:24;;;;;;;10.43;9.93;;;;;;;18.62;100.00;100602.09;5054540;28;20033;-62
2022/09/10 04:25:51;;;;;;;10.45;9.95;;;;;;;18.70;100.00;100596.44;5054893;28;20025;-62
2022/09/10 04:28:17;;;;;;;10.27;9.77;;;;;;;18.74;100.00;100585.03;5054440;28;20104;-62
2022/09/10 04:30:43;;;;;;;10.20;9.70;;;;;;;18.80;100.00;100580.59;5054268;28;20056;-62
2022/09/10 04:33:10;;;;;;;10.55;10.05;;;;;;;18.80;100.00;100598.59;5054482;28;20023;-62
2022/09/10 04:35:36;;;;;;;10.60;10.10;;;;;;;18.82;100.00;100600.03;5050889;28;20041;-62
2022/09/10 04:38:02;;;;;;;10.20;9.70;;;;;;;18.73;100.00;100604.91;5056513;28;20495;-63
2022/09/10 04:40:27;;;;;;;10.50;10.00;;;;;;;18.81;100.00;100601.06;5037750;28;20036;-63
2022/09/10 04:42:53;;;;;;;10.35;9.85;;;;;;;18.77;100.00;100603.38;5053744;28;20112;-63
2022/09/10 04:45:18;;;;;;;10.30;9.80;;;;;;;18.75;100.00;100596.59;5054085;28;20408;-62
2022/09/10 04:47:45;;;;;;;10.23;9.75;;;;;;;18.98;100.00;100602.06;5045265;28;20033;-63
2022/09/10 04:50:13;;;;;;;10.27;9.77;;;;;;;18.90;100.00;100607.75;5048809;28;20499;-63
2022/09/10 04:52:38;;;;;;;10.18;9.68;;;;;;;18.81;100.00;100603.75;5039776;28;20036;-63
2022/09/10 04:55:04;;;;;;;10.35;9.85;;;;;;;18.86;100.00;100606.56;5050320;28;20033;-63
2022/09/10 04:57:30;;;;;;;10.13;9.65;;;;;;;18.70;100.00;100589.22;5044395;28;20021;-62
2022/09/10 04:59:55;;;;;;;9.90;9.50;;;;;;;18.85;100.00;100612.19;5050798;28;20488;-60
2022/09/10 05:02:21;;;;;;;10.02;9.63;;;;;;;18.76;100.00;100620.56;5045931;28;20079;-63
2022/09/10 05:04:47;;;;;;;10.30;9.80;;;;;;;18.82;100.00;100620.69;5039862;28;20392;-62
2022/09/10 05:07:12;;;;;;;9.85;9.45;;;;;;;18.77;100.00;100613.31;5054289;28;20353;-62
2022/09/10 05:09:38;;;;;;;10.25;9.75;;;;;;;18.99;100.00;100616.31;5056056;28;20028;-63
2022/09/10 05:12:03;;;;;;;10.20;9.70;;;;;;;18.95;100.00;100610.59;5053201;28;20032;-62
2022/09/10 05:14:29;;;;;;;10.25;9.75;;;;;;;19.13;100.00;100616.97;5049952;28;20820;-63
2022/09/10 05:16:55;;;;;;;10.30;9.80;;;;;;;19.13;100.00;100620.47;5050177;28;20488;-62
2022/09/10 05:19:21;;;;;;;10.25;9.75;;;;;;;19.08;100.00;100619.50;5053696;28;20551;-62
2022/09/10 05:21:49;;;;;;;10.38;9.88;;;;;;;19.05;100.00;100620.81;5053485;28;20104;-63
2022/09/10 05:24:16;;;;;;;10.40;9.90;;;;;;;19.07;100.00;100617.88;5053367;28;20028;-63
2022/09/10 05:26:42;;;;;;;10.82;10.32;;;;;;;18.96;100.00;100611.41;5053243;28;20408;-63
2022/09/10 05:29:08;;;;;;;10.27;9.77;;;;;;;18.90;100.00;100618.53;5052450;28;20476;-63
2022/09/10 05:31:34;;;;;;;10.30;9.80;;;;;;;18.98;100.00;100620.88;5044236;28;20029;-63
2022/09/10 05:34:00;;;;;;;10.30;9.80;;;;;;;18.94;100.00;100608.94;5048340;28;20025;-64
2022/09/10 05:36:27;;;;;;;9.80;9.40;;;;;;;18.88;100.00;100611.75;5053506;28;20020;-63
2022/09/10 05:38:53;;;;;;;10.20;9.70;;;;;;;19.04;100.00;100613.78;5053330;28;20039;-63
2022/09/10 05:41:20;;;;;;;9.85;9.45;;;;;;;18.91;100.00;100601.34;5052549;28;20025;-64
2022/09/10 05:43:46;;;;;;;10.10;9.65;;;;;;;19.10;100.00;100610.19;5046451;28;20115;-64
2022/09/10 05:46:12;;;;;;;10.00;9.60;;;;;;;19.09;100.00;100602.31;5046144;28;20071;-62
2022/09/10 05:48:39;;;;;;;10.30;9.80;;;;;;;19.17;100.00;100608.22;5051627;28;20453;-62
2022/09/10 05:51:05;;;;;;;10.10;9.68;;;;;;;19.23;100.00;100604.59;5053153;28;20032;-62
2022/09/10 05:53:32;;;;;;;11.13;10.63;;;;;;;19.28;100.00;100602.03;5052756;28;20020;-63
2022/09/10 05:55:58;;;;;;;10.10;9.63;;;;;;;19.23;100.00;100601.09;5053295;28;20025;-63
2022/09/10 05:58:23;;;;;;;9.80;9.40;;;;;;;19.26;100.00;100596.09;5053032;28;20485;-62
2022/09/10 06:00:50;;;;;;;10.25;9.75;;;;;;;19.19;100.00;100600.75;5052285;28;20131;-63
2022/09/10 06:03:16;;;;;;;10.50;10.00;;;;;;;19.26;100.00;100596.09;5051537;28;20043;-63
2022/09/10 06:05:49;;;;;;;10.38;9.88;;;;;;;19.30;100.00;100601.81;5051138;28;20024;-62
2022/09/10 06:08:15;;;;;;;10.05;9.60;;;;;;;19.10;100.00;100595.94;5052607;28;20104;-64
2022/09/10 06:10:41;;;;;;;10.43;9.93;;;;;;;19.27;100.00;100584.28;5052918;28;20024;-63
2022/09/10 06:13:07;;;;;;;10.00;9.57;;;;;;;19.27;100.00;100589.66;5046029;28;20021;-63
2022/09/10 06:15:34;;;;;;;10.55;10.05;;;;;;;19.40;100.00;100590.50;5051542;28;20100;-64
2022/09/10 06:18:00;;;;;;;9.55;9.15;;;;;;;19.38;100.00;100593.41;5052606;28;20591;-63
2022/09/10 06:20:27;;;;;;;9.95;9.55;;;;;;;19.31;100.00;100588.13;5044509;28;20114;-63
2022/09/10 06:22:53;;;;;;;10.40;9.90;;;;;;;19.18;100.00;100585.66;5052477;28;20032;-64
2022/09/10 06:25:19;;;;;;;9.95;9.55;;;;;;;19.33;100.00;100577.16;5051071;28;20079;-64
2022/09/10 06:27:45;;;;;;;10.00;9.57;;;;;;;19.48;100.00;100572.16;5052264;28;20029;-63
2022/09/10 06:30:11;;;;;;;9.68;9.27;;;;;;;19.76;100.00;100571.50;5052033;28;20028;-63
2022/09/10 06:32:38;;;;;;;9.90;9.50;;;;;;;20.34;100.00;100562.50;5052008;28;20123;-63
2022/09/10 06:35:04;;;;;;;10.40;9.90;;;;;;;20.38;100.00;100561.00;5052029;28;20488;-63
2022/09/10 06:37:33;;;;;;;10.68;10.18;;;;;;;20.21;100.00;100562.78;5041015;28;20484;-63
2022/09/10 06:39:59;;;;;;;9.95;9.55;;;;;;;20.29;100.00;100564.31;5042873;28;20074;-63
2022/09/10 06:42:25;;;;;;;10.23;9.75;;;;;;;20.22;100.00;100552.84;5052117;28;20321;-63
2022/09/10 06:44:51;;;;;;;9.93;9.52;;;;;;;20.40;100.00;100560.75;5051782;28;20053;-63
2022/09/10 06:47:17;;;;;;;10.23;9.75;;;;;;;20.27;100.00;100563.69;5051769;28;20045;-63
2022/09/10 06:49:44;;;;;;;9.85;9.45;;;;;;;20.23;100.00;100549.09;5046062;28;20155;-62
2022/09/10 06:52:12;;;;;;;10.90;10.40;;;;;;;20.21;100.00;100545.81;5049427;28;20512;-64
2022/09/10 06:54:38;;;;;;;9.82;9.43;;;;;;;20.18;100.00;100552.47;5049622;28;20082;-65
2022/09/10 06:57:04;;;;;;;9.68;9.27;;;;;;;20.33;100.00;100552.78;5051781;28;20032;-63
2022/09/10 06:59:33;;;;;;;10.35;9.85;;;;;;;20.24;100.00;100550.72;5051831;28;20094;-63
2022/09/10 07:01:59;;;;;;;10.40;9.90;;;;;;;20.74;100.00;100566.31;5052034;28;20452;-63
2022/09/10 07:04:25;;;;;;;10.52;10.02;;;;;;;20.71;100.00;100554.09;5051267;28;20083;-62
2022/09/10 07:06:50;;;;;;;10.18;9.70;;;;;;;20.92;100.00;100561.50;5051742;28;20337;-63
2022/09/10 07:09:16;;;;;;;10.30;9.80;;;;;;;21.05;100.00;100548.78;5041310;28;20067;-63
2022/09/10 07:11:41;;;;;;;10.07;9.65;;;;;;;21.01;100.00;100553.88;5046752;28;20524;-64
2022/09/10 07:14:11;;;;;;;10.00;9.60;;;;;;;21.13;100.00;100560.00;5051169;28;20025;-63
2022/09/10 07:16:40;;;;;;;9.93;9.52;;;;;;;21.40;100.00;100548.63;5051344;28;20025;-63
2022/09/10 07:19:06;;;;;;;10.30;9.80;;;;;;;21.51;100.00;100540.41;5051526;28;20072;-64
2022/09/10 07:21:36;;;;;;;10.30;9.80;;;;;;;21.85;100.00;100550.38;5051512;28;20033;-63
2022/09/10 07:24:04;;;;;;;10.38;9.88;;;;;;;21.88;100.00;100545.25;5043088;28;20029;-64
2022/09/10 07:26:30;;;;;;;9.98;9.57;;;;;;;22.27;100.00;100526.38;5051329;28;20020;-63
2022/09/10 07:28:57;;;;;;;10.82;10.32;;;;;;;22.27;100.00;100521.78;5050363;28;20045;-62
2022/09/10 07:31:27;;;;;;;10.70;10.20;;;;;;;22.73;100.00;100514.16;5051048;28;20392;-63
2022/09/10 07:33:54;;;;;;;9.90;9.50;;;;;;;22.57;100.00;100515.09;5051080;28;20032;-62
2022/09/10 07:36:20;;;;;;;10.45;9.98;;;;;;;24.05;100.00;100510.84;5051017;28;20496;-63
2022/09/10 07:38:47;;;;;;;10.55;10.05;;;;;;;24.50;100.00;100507.50;5051241;28;20041;-63
2022/09/10 07:41:14;;;;;;;10.15;9.75;;;;;;;24.40;100.00;100496.66;5038214;28;20033;-63
2022/09/10 07:43:41;;;;;;;9.73;9.32;;;;;;;23.88;100.00;100492.09;5049871;28;20045;-64
2022/09/10 07:46:11;;;;;;;9.68;9.27;;;;;;;23.92;100.00;100506.72;5047255;28;20029;-63
2022/09/10 07:48:37;;;;;;;9.95;9.55;;;;;;;23.59;100.00;100500.56;5048522;28;20059;-64
2022/09/10 07:51:05;;;;;;;10.40;9.90;;;;;;;23.42;100.00;100499.88;5041431;28;20036;-64
2022/09/10 07:53:31;;;;;;;10.30;9.85;;;;;;;23.34;100.00;100492.25;5050389;28;20021;-63
2022/09/10 07:56:05;;;;;;;10.15;9.73;;;;;;;23.59;100.00;100497.03;5051263;28;20029;-64
2022/09/10 07:58:32;;;;;;;10.10;9.70;;;;;;;23.70;100.00;100491.44;5051013;28;20013;-63
2022/09/10 08:00:59;;;;;;;9.95;9.55;;;;;;;23.68;100.00;100509.03;5050873;28;20079;-63
2022/09/10 08:03:26;;;;;;;10.80;10.30;;;;;;;23.49;100.00;100488.84;5050026;28;20041;-63
2022/09/10 08:05:52;;;;;;;10.10;9.70;;;;;;;23.79;100.00;100486.31;5050927;28;20024;-63
2022/09/10 08:08:18;;;;;;;10.65;10.15;;;;;;;24.29;100.00;100473.25;5037121;28;20495;-63
2022/09/10 08:10:45;;;;;;;10.00;9.60;;;;;;;24.33;100.00;100496.09;5039940;28;20026;-63
2022/09/10 08:13:11;;;;;;;10.60;10.10;;;;;;;24.42;100.00;100481.72;5050605;28;20021;-63
2022/09/10 08:15:41;;;;;;;9.90;9.50;;;;;;;23.94;100.00;100483.72;5049901;28;20071;-63
2022/09/10 08:18:07;;;;;;;10.00;9.60;;;;;;;23.81;100.00;100486.91;5050921;28;20060;-63
2022/09/10 08:20:32;;;;;;;9.80;9.40;;;;;;;24.04;100.00;100490.25;5048162;28;20033;-64
2022/09/10 08:22:59;;;;;;;10.35;9.85;;;;;;;23.95;100.00;100479.94;5044867;28;20103;-63
2022/09/10 08:25:25;;;;;;;10.00;9.60;;;;;;;23.93;100.00;100484.78;5045997;28;20025;-62
2022/09/10 08:27:50;;;;;;;9.80;9.40;;;;;;;23.65;100.00;100491.44;5036714;28;20028;-63
2022/09/10 08:30:16;;;;;;;9.75;9.35;;;;;;;24.40;100.00;100483.09;5054666;28;20087;-63
2022/09/10 08:32:41;;;;;;;9.63;9.23;;;;;;;23.88;100.00;100459.56;5046533;28;20052;-63
2022/09/10 08:35:07;;;;;;;10.00;9.60;;;;;;;23.84;100.00;100466.59;5049534;28;20101;-63
2022/09/10 08:37:33;;;;;;;10.52;10.02;;;;;;;24.56;100.00;100451.38;5053651;28;20100;-63
2022/09/10 08:39:58;;;;;;;10.07;9.68;;;;;;;24.34;100.00;100454.34;5042823;28;20042;-64
2022/09/10 08:42:31;;;;;;;10.00;9.60;;;;;;;24.19;100.00;100457.78;5054640;28;20098;-63
2022/09/10 08:45:09;;;;;;;9.70;9.30;;;;;;;25.34;100.00;100450.06;5052249;28;20412;-63
2022/09/10 08:47:54;;;;;;;9.63;9.23;;;;;;;25.48;100.00;100433.16;5053983;28;20041;-63
2022/09/10 08:50:23;;;;;;;10.18;9.77;;;;;;;25.87;100.00;100441.50;5052040;28;20063;-63
2022/09/10 08:53:18;;;;;;;10.43;9.95;;;;;;;26.07;100.00;100446.84;5052958;28;20424;-63
2022/09/10 08:55:44;;;;;;;10.23;9.82;;;;;;;26.13;100.00;100440.28;5050601;28;20052;-62
2022/09/10 08:58:22;;;;;;;10.70;10.20;;;;;;;26.01;100.00;100442.53;5053776;28;20028;-63
2022/09/10 09:00:52;;;;;;;10.80;10.30;;;;;;;26.53;100.00;100438.44;5050417;28;20030;-63
2022/09/10 09:03:36;;;;;;;10.30;9.82;;;;;;;26.78;100.00;100466.56;5043592;28;20033;-63
2022/09/10 09:06:04;;;;;;;10.13;9.73;;;;;;;26.33;100.00;100423.03;5053731;28;20029;-63
2022/09/10 09:08:35;;;;;;;10.40;9.90;;;;;;;25.73;100.00;100424.16;5053686;28;20047;-63
2022/09/10 09:11:15;;;;;;;10.43;9.95;;;;;;;25.11;100.00;100428.09;5050975;28;20021;-63
2022/09/10 09:13:49;;;;;;;10.45;9.95;;;;;;;25.46;100.00;100409.00;5053712;28;20032;-64
2022/09/10 09:16:33;;;;;;;10.23;9.80;;;;;;;25.47;100.00;100426.91;5052154;28;20033;-63
2022/09/10 09:19:04;;;;;;;9.68;9.27;;;;;;;24.96;100.00;100415.31;5043381;28;20112;-63
2022/09/10 09:21:36;;;;;;;10.10;9.70;;;;;;;25.25;100.00;100415.56;5053407;28;20061;-63
2022/09/10 09:24:09;;;;;;;9.98;9.57;;;;;;;25.33;100.00;100423.97;5053693;28;20109;-64
2022/09/10 09:26:35;;;;;;;10.00;9.60;;;;;;;24.64;100.00;100404.75;5050894;28;20542;-64
2022/09/10 09:29:04;;;;;;;9.82;9.43;;;;;;;24.55;100.00;100390.09;5052348;28;20370;-64
2022/09/10 09:31:56;;;;;;;9.98;9.57;;;;;;;25.04;100.00;100407.44;5053450;28;20452;-63
2022/09/10 09:34:53;;;;;;;10.00;9.60;;;;;;;25.77;100.00;100419.78;5052006;28;20060;-62
2022/09/10 09:37:26;;;;;;;10.50;10.00;;;;;;;25.99;100.00;100403.91;5052674;28;20021;-63
2022/09/10 09:40:27;;;;;;;9.98;9.57;;;;;;;26.68;100.00;100385.81;5053234;28;20059;-63
2022/09/10 09:43:02;;;;;;;10.38;9.88;;;;;;;26.30;100.00;100369.22;5053075;28;20400;-63
2022/09/10 09:45:36;;;;;;;10.70;10.20;;;;;;;26.50;100.00;100373.69;5051188;28;20032;-63
2022/09/10 09:48:06;;;;;;;11.07;10.57;;;;;;;26.91;100.00;100362.47;5039604;28;20117;-64
2022/09/10 09:50:34;;;;;;;10.07;9.68;;;;;;;27.11;100.00;100391.44;5051034;28;20112;-63
2022/09/10 09:52:59;;;;;;;10.00;9.60;;;;;;;26.31;100.00;100365.41;5052888;28;20039;-63
2022/09/10 09:55:52;;;;;;;10.70;10.20;;;;;;;26.24;100.00;100356.75;5053105;28;20108;-64
2022/09/10 09:58:20;;;;;;;10.50;10.00;;;;;;;25.92;100.00;100356.38;5053096;28;20388;-62
2022/09/10 10:01:02;;;;;;;10.20;9.80;;;;;;;26.16;100.00;100354.63;5051727;28;20040;-63
2022/09/10 10:03:31;;;;;;;10.10;9.70;;;;;;;25.92;100.00;100338.19;5042707;28;20056;-63
2022/09/10 10:06:05;;;;;;;10.52;10.02;;;;;;;26.23;100.00;100359.75;5038530;28;20560;-64
2022/09/10 10:08:36;;;;;;;10.35;9.88;;;;;;;25.73;100.00;100348.91;5052943;28;20021;-64
2022/09/10 10:11:03;;;;;;;9.90;9.50;;;;;;;25.56;100.00;100326.66;5052927;28;20495;-62
2022/09/10 10:13:40;;;;;;;10.05;9.65;;;;;;;25.48;100.00;100338.91;5052919;28;20033;-63
2022/09/10 10:16:22;;;;;;;9.90;9.50;;;;;;;25.03;100.00;100335.25;5052817;28;20024;-63
2022/09/10 10:18:49;;;;;;;10.10;9.70;;;;;;;24.85;100.00;100352.09;5040991;28;20377;-63
2022/09/10 10:21:22;;;;;;;10.05;9.65;;;;;;;24.74;100.00;100339.63;5048930;28;20024;-63
2022/09/10 10:23:48;;;;;;;10.18;9.77;;;;;;;24.84;100.00;100336.91;5052293;28;20028;-62
2022/09/10 10:26:19;;;;;;;10.32;9.82;;;;;;;24.67;100.00;100348.03;5052364;28;20036;-63
2022/09/10 10:28:58;;;;;;;9.98;9.57;;;;;;;24.53;100.00;100357.81;5052393;28;20489;-63
2022/09/10 10:31:42;;;;;;;10.43;9.93;;;;;;;24.57;100.00;100336.41;5052160;28;20025;-64
2022/09/10 10:34:13;;;;;;;9.83;9.43;;;;;;;24.80;100.00;100335.81;5038784;28;20154;-63
2022/09/10 10:36:58;;;;;;;10.15;9.73;;;;;;;24.71;100.00;100343.72;5048279;28;20277;-63
2022/09/10 10:39:35;;;;;;;9.95;9.55;;;;;;;24.58;100.00;100319.03;5052144;28;20354;-63
2022/09/10 10:42:39;;;;;;;10.40;9.90;;;;;;;24.38;100.00;100334.22;5052214;28;20352;-63
2022/09/10 10:45:07;;;;;;;9.77;9.38;;;;;;;24.29;100.00;100313.31;5052056;28;20045;-63
2022/09/10 10:47:47;;;;;;;9.73;9.32;;;;;;;24.55;100.00;100325.00;5051348;28;20050;-64
2022/09/10 10:50:18;;;;;;;10.10;9.70;;;;;;;24.69;100.00;100324.19;5035503;28;20036;-63
2022/09/10 10:53:14;;;;;;;10.50;10.00;;;;;;;24.49;100.00;100287.03;5044673;28;20040;-63
2022/09/10 10:56:07;;;;;;;9.63;9.23;;;;;;;24.45;100.00;100282.41;5052068;28;20088;-64
2022/09/10 10:58:54;;;;;;;10.05;9.65;;;;;;;24.61;100.00;100315.78;5044616;28;20031;-64
2022/09/10 11:01:28;;;;;;;9.77;9.38;;;;;;;24.74;100.00;100301.66;5051871;28;20024;-63
2022/09/10 11:04:21;;;;;;;;;;;;;;;24.81;100.00;100319.25;5052143;28;20025;-63
2022/09/10 11:06:53;;;;;;;10.25;9.80;;;;;;;25.12;100.00;100299.41;5051904;28;20003;-64
2022/09/10 11:09:45;;;;;;;10.35;9.85;;;;;;;25.07;100.00;100294.81;5049050;28;20404;-63
2022/09/10 11:12:26;;;;;;;9.85;9.45;;;;;;;25.15;100.00;100288.00;5051313;28;20041;-63
2022/09/10 11:15:29;;;;;;;9.95;9.55;;;;;;;25.36;100.00;100281.41;5050069;28;20070;-63
2022/09/10 11:18:13;;;;;;;9.90;9.50;;;;;;;25.37;100.00;100280.31;5049924;28;20090;-63
2022/09/10 11:21:07;;;;;;;9.90;9.50;;;;;;;25.29;100.00;100289.84;5042653;28;20112;-63
2022/09/10 11:23:38;;;;;;;10.48;9.98;;;;;;;24.98;100.00;100267.41;5031917;28;20041;-64
2022/09/10 11:26:29;;;;;;;10.00;9.60;;;;;;;24.89;100.00;100255.47;5050357;28;20448;-63